sensor_id;sensor_type;location;lat;lon;timestamp;temperature;humidity
29363;DHT22;16349;53.672;10.014;2022-07-24T00:01:57;12.50;99.90
29363;DHT22;16349;53.672;10.014;2022-07-24T00:04:24;12.60;99.90
29363;DHT22;16349;53.672;10.014;2022-07-24T00:06:51;12.60;99.90
29363;DHT22;16349;53.672;10.014;2022-07-24T00:09:18;12.50;99.90
29363;DHT22;16349;53.672;10.014;2022-07-24T00:14:13;12.40;99.90
29363;DHT22;16349;53.672;10.014;2022-07-24T00:16:40;12.40;99.90
29363;DHT22;16349;53.672;10.014;2022-07-24T00:19:07;12.30;99.90
29363;DHT22;16349;53.672;10.014;2022-07-24T00:21:35;12.20;99.90
29363;DHT22;16349;53.672;10.014;2022-07-24T00:24:02;12.20;99.90
29363;DHT22;16349;53.672;10.014;2022-07-24T00:26:29;12.20;99.90
29363;DHT22;16349;53.672;10.014;2022-07-24T00:28:56;12.30;99.90
29363;DHT22;16349;53.672;10.014;2022-07-24T00:31:24;12.20;99.90
29363;DHT22;16349;53.672;10.014;2022-07-24T00:33:51;12.30;99.90
29363;DHT22;16349;53.672;10.014;2022-07-24T00:36:18;12.20;99.90
29363;DHT22;16349;53.672;10.014;2022-07-24T00:38:45;12.20;99.90
29363;DHT22;16349;53.672;10.014;2022-07-24T00:41:12;12.30;99.90
29363;DHT22;16349;53.672;10.014;2022-07-24T00:43:59;12.10;99.90
29363;DHT22;16349;53.672;10.014;2022-07-24T00:46:28;12.10;99.90
29363;DHT22;16349;53.672;10.014;2022-07-24T00:48:55;12.10;99.90
29363;DHT22;16349;53.672;10.014;2022-07-24T00:51:22;12.10;99.90
29363;DHT22;16349;53.672;10.014;2022-07-24T00:53:50;12.10;99.90
29363;DHT22;16349;53.672;10.014;2022-07-24T00:56:18;12.20;99.90
29363;DHT22;16349;53.672;10.014;2022-07-24T00:58:45;12.20;99.90
29363;DHT22;16349;53.672;10.014;2022-07-24T01:01:12;12.00;99.90
29363;DHT22;16349;53.672;10.014;2022-07-24T01:03:40;12.00;99.90
29363;DHT22;16349;53.672;10.014;2022-07-24T01:06:08;12.00;99.90
29363;DHT22;16349;53.672;10.014;2022-07-24T01:08:35;11.90;99.90
29363;DHT22;16349;53.672;10.014;2022-07-24T01:11:02;11.90;99.90
29363;DHT22;16349;53.672;10.014;2022-07-24T01:13:30;12.00;99.90
29363;DHT22;16349;53.672;10.014;2022-07-24T01:15:57;11.90;99.90
29363;DHT22;16349;53.672;10.014;2022-07-24T01:18:25;11.90;99.90
29363;DHT22;16349;53.672;10.014;2022-07-24T01:20:53;11.90;99.90
29363;DHT22;16349;53.672;10.014;2022-07-24T01:23:21;11.90;99.90
29363;DHT22;16349;53.672;10.014;2022-07-24T01:25:48;11.90;99.90
29363;DHT22;16349;53.672;10.014;2022-07-24T01:28:15;11.90;99.90
29363;DHT22;16349;53.672;10.014;2022-07-24T01:30:43;11.90;99.90
29363;DHT22;16349;53.672;10.014;2022-07-24T01:33:09;11.70;99.90
29363;DHT22;16349;53.672;10.014;2022-07-24T01:35:37;11.80;99.90
29363;DHT22;16349;53.672;10.014;2022-07-24T01:38:05;11.70;99.90
29363;DHT22;16349;53.672;10.014;2022-07-24T01:40:32;11.70;99.90
29363;DHT22;16349;53.672;10.014;2022-07-24T01:42:59;11.70;99.90
29363;DHT22;16349;53.672;10.014;2022-07-24T01:45:25;11.70;99.90
29363;DHT22;16349;53.672;10.014;2022-07-24T01:47:52;11.70;99.90
29363;DHT22;16349;53.672;10.014;2022-07-24T01:50:20;11.70;99.90
29363;DHT22;16349;53.672;10.014;2022-07-24T01:52:46;11.80;99.90
29363;DHT22;16349;53.672;10.014;2022-07-24T01:55:15;11.70;99.90
29363;DHT22;16349;53.672;10.014;2022-07-24T01:57:42;11.70;99.90
29363;DHT22;16349;53.672;10.014;2022-07-24T02:00:10;11.60;99.90
29363;DHT22;16349;53.672;10.014;2022-07-24T02:02:41;11.60;99.90
29363;DHT22;16349;53.672;10.014;2022-07-24T02:05:09;11.60;99.90
29363;DHT22;16349;53.672;10.014;2022-07-24T02:07:39;11.70;99.90
29363;DHT22;16349;53.672;10.014;2022-07-24T02:10:07;11.70;99.90
29363;DHT22;16349;53.672;10.014;2022-07-24T02:12:35;11.80;99.90
29363;DHT22;16349;53.672;10.014;2022-07-24T02:15:03;11.70;99.90
29363;DHT22;16349;53.672;10.014;2022-07-24T02:17:30;11.60;99.90
29363;DHT22;16349;53.672;10.014;2022-07-24T02:19:57;11.60;99.90
29363;DHT22;16349;53.672;10.014;2022-07-24T02:22:24;11.50;99.90
29363;DHT22;16349;53.672;10.014;2022-07-24T02:24:51;11.50;99.90
29363;DHT22;16349;53.672;10.014;2022-07-24T02:27:17;11.50;99.90
29363;DHT22;16349;53.672;10.014;2022-07-24T02:29:46;11.50;99.90
29363;DHT22;16349;53.672;10.014;2022-07-24T02:32:13;11.50;99.90
29363;DHT22;16349;53.672;10.014;2022-07-24T02:34:40;11.60;99.90
29363;DHT22;16349;53.672;10.014;2022-07-24T02:37:07;11.60;99.90
29363;DHT22;16349;53.672;10.014;2022-07-24T02:39:34;11.50;99.90
29363;DHT22;16349;53.672;10.014;2022-07-24T02:42:01;11.40;99.90
29363;DHT22;16349;53.672;10.014;2022-07-24T02:44:28;11.40;99.90
29363;DHT22;16349;53.672;10.014;2022-07-24T02:46:56;11.40;99.90
29363;DHT22;16349;53.672;10.014;2022-07-24T02:49:23;11.40;99.90
29363;DHT22;16349;53.672;10.014;2022-07-24T02:51:50;11.40;99.90
29363;DHT22;16349;53.672;10.014;2022-07-24T02:54:17;11.40;99.90
29363;DHT22;16349;53.672;10.014;2022-07-24T02:56:44;11.30;99.90
29363;DHT22;16349;53.672;10.014;2022-07-24T02:59:11;11.30;99.90
29363;DHT22;16349;53.672;10.014;2022-07-24T03:01:38;11.30;99.90
29363;DHT22;16349;53.672;10.014;2022-07-24T03:04:06;11.40;99.90
29363;DHT22;16349;53.672;10.014;2022-07-24T03:06:33;11.40;99.90
29363;DHT22;16349;53.672;10.014;2022-07-24T03:09:00;11.40;99.90
29363;DHT22;16349;53.672;10.014;2022-07-24T03:11:27;11.40;99.90
29363;DHT22;16349;53.672;10.014;2022-07-24T03:13:54;11.30;99.90
29363;DHT22;16349;53.672;10.014;2022-07-24T03:16:21;11.20;99.90
29363;DHT22;16349;53.672;10.014;2022-07-24T03:18:48;11.20;99.90
29363;DHT22;16349;53.672;10.014;2022-07-24T03:21:17;11.20;99.90
29363;DHT22;16349;53.672;10.014;2022-07-24T03:23:45;11.30;99.90
29363;DHT22;16349;53.672;10.014;2022-07-24T03:26:12;11.20;99.90
29363;DHT22;16349;53.672;10.014;2022-07-24T03:28:38;11.10;99.90
29363;DHT22;16349;53.672;10.014;2022-07-24T03:31:05;11.10;99.90
29363;DHT22;16349;53.672;10.014;2022-07-24T03:33:32;11.20;99.90
29363;DHT22;16349;53.672;10.014;2022-07-24T03:35:59;11.20;99.90
29363;DHT22;16349;53.672;10.014;2022-07-24T03:38:28;11.30;99.90
29363;DHT22;16349;53.672;10.014;2022-07-24T03:40:54;11.30;99.90
29363;DHT22;16349;53.672;10.014;2022-07-24T03:43:21;11.40;99.90
29363;DHT22;16349;53.672;10.014;2022-07-24T03:45:49;11.40;99.90
29363;DHT22;16349;53.672;10.014;2022-07-24T03:48:16;11.40;99.90
29363;DHT22;16349;53.672;10.014;2022-07-24T03:50:43;11.40;99.90
29363;DHT22;16349;53.672;10.014;2022-07-24T03:53:10;11.40;99.90
29363;DHT22;16349;53.672;10.014;2022-07-24T03:55:38;11.30;99.90
29363;DHT22;16349;53.672;10.014;2022-07-24T03:58:05;11.30;99.90
29363;DHT22;16349;53.672;10.014;2022-07-24T04:00:32;11.30;99.90
29363;DHT22;16349;53.672;10.014;2022-07-24T04:02:59;11.40;99.90
29363;DHT22;16349;53.672;10.014;2022-07-24T04:05:26;11.40;99.90
29363;DHT22;16349;53.672;10.014;2022-07-24T04:07:53;11.40;99.90
29363;DHT22;16349;53.672;10.014;2022-07-24T04:10:20;11.40;99.90
29363;DHT22;16349;53.672;10.014;2022-07-24T04:12:48;11.40;99.90
29363;DHT22;16349;53.672;10.014;2022-07-24T04:15:15;11.40;99.90
29363;DHT22;16349;53.672;10.014;2022-07-24T04:17:42;11.50;99.90
29363;DHT22;16349;53.672;10.014;2022-07-24T04:20:10;11.50;99.90
29363;DHT22;16349;53.672;10.014;2022-07-24T04:22:37;11.60;99.90
29363;DHT22;16349;53.672;10.014;2022-07-24T04:25:05;11.60;99.90
29363;DHT22;16349;53.672;10.014;2022-07-24T04:27:33;11.60;99.90
29363;DHT22;16349;53.672;10.014;2022-07-24T04:30:02;11.60;99.90
29363;DHT22;16349;53.672;10.014;2022-07-24T04:32:29;11.60;99.90
29363;DHT22;16349;53.672;10.014;2022-07-24T04:34:56;11.70;99.90
29363;DHT22;16349;53.672;10.014;2022-07-24T04:37:23;11.70;99.90
29363;DHT22;16349;53.672;10.014;2022-07-24T04:39:50;11.80;99.90
29363;DHT22;16349;53.672;10.014;2022-07-24T04:42:17;11.80;99.90
29363;DHT22;16349;53.672;10.014;2022-07-24T04:44:44;11.80;99.90
29363;DHT22;16349;53.672;10.014;2022-07-24T04:47:13;11.90;99.90
29363;DHT22;16349;53.672;10.014;2022-07-24T04:49:39;11.90;99.90
29363;DHT22;16349;53.672;10.014;2022-07-24T04:52:06;12.00;99.90
29363;DHT22;16349;53.672;10.014;2022-07-24T04:54:33;12.10;99.90
29363;DHT22;16349;53.672;10.014;2022-07-24T04:57:00;12.10;99.90
29363;DHT22;16349;53.672;10.014;2022-07-24T04:59:26;12.20;99.90
29363;DHT22;16349;53.672;10.014;2022-07-24T05:01:53;12.30;99.90
29363;DHT22;16349;53.672;10.014;2022-07-24T05:04:21;12.30;99.90
29363;DHT22;16349;53.672;10.014;2022-07-24T05:06:48;12.40;99.90
29363;DHT22;16349;53.672;10.014;2022-07-24T05:09:15;12.50;99.90
29363;DHT22;16349;53.672;10.014;2022-07-24T05:11:42;12.50;99.90
29363;DHT22;16349;53.672;10.014;2022-07-24T05:14:09;12.60;99.90
29363;DHT22;16349;53.672;10.014;2022-07-24T05:16:36;12.70;99.90
29363;DHT22;16349;53.672;10.014;2022-07-24T05:19:03;12.80;99.90
29363;DHT22;16349;53.672;10.014;2022-07-24T05:21:32;12.90;99.90
29363;DHT22;16349;53.672;10.014;2022-07-24T05:23:59;13.00;99.90
29363;DHT22;16349;53.672;10.014;2022-07-24T05:26:28;13.10;99.90
29363;DHT22;16349;53.672;10.014;2022-07-24T05:28:56;13.20;99.90
29363;DHT22;16349;53.672;10.014;2022-07-24T05:31:24;13.30;99.90
29363;DHT22;16349;53.672;10.014;2022-07-24T05:33:51;13.40;99.90
29363;DHT22;16349;53.672;10.014;2022-07-24T05:36:18;13.50;99.90
29363;DHT22;16349;53.672;10.014;2022-07-24T05:38:46;13.60;99.90
29363;DHT22;16349;53.672;10.014;2022-07-24T05:41:14;13.70;99.90
29363;DHT22;16349;53.672;10.014;2022-07-24T05:43:41;13.90;99.90
29363;DHT22;16349;53.672;10.014;2022-07-24T05:46:08;14.00;99.90
29363;DHT22;16349;53.672;10.014;2022-07-24T05:48:34;14.10;99.90
29363;DHT22;16349;53.672;10.014;2022-07-24T05:51:02;14.20;99.90
29363;DHT22;16349;53.672;10.014;2022-07-24T05:53:28;14.30;99.90
29363;DHT22;16349;53.672;10.014;2022-07-24T05:55:56;14.40;99.90
29363;DHT22;16349;53.672;10.014;2022-07-24T05:58:23;14.50;99.90
29363;DHT22;16349;53.672;10.014;2022-07-24T06:00:51;14.70;99.90
29363;DHT22;16349;53.672;10.014;2022-07-24T06:03:17;15.00;99.90
29363;DHT22;16349;53.672;10.014;2022-07-24T06:05:44;15.10;99.90
29363;DHT22;16349;53.672;10.014;2022-07-24T06:08:11;15.40;99.90
29363;DHT22;16349;53.672;10.014;2022-07-24T06:10:38;15.60;99.90
29363;DHT22;16349;53.672;10.014;2022-07-24T06:13:06;15.90;99.90
29363;DHT22;16349;53.672;10.014;2022-07-24T06:15:33;15.90;99.90
29363;DHT22;16349;53.672;10.014;2022-07-24T06:18:00;16.10;99.90
29363;DHT22;16349;53.672;10.014;2022-07-24T06:20:27;16.10;99.90
29363;DHT22;16349;53.672;10.014;2022-07-24T06:22:54;16.20;99.90
29363;DHT22;16349;53.672;10.014;2022-07-24T06:25:21;16.20;99.90
29363;DHT22;16349;53.672;10.014;2022-07-24T06:27:50;16.30;99.90
29363;DHT22;16349;53.672;10.014;2022-07-24T06:30:22;16.40;99.90
29363;DHT22;16349;53.672;10.014;2022-07-24T06:32:50;16.40;99.90
29363;DHT22;16349;53.672;10.014;2022-07-24T06:35:18;16.50;99.90
29363;DHT22;16349;53.672;10.014;2022-07-24T06:37:45;16.60;99.90
29363;DHT22;16349;53.672;10.014;2022-07-24T06:40:14;16.60;99.90
29363;DHT22;16349;53.672;10.014;2022-07-24T06:42:41;16.70;99.90
29363;DHT22;16349;53.672;10.014;2022-07-24T06:45:08;16.80;99.90
29363;DHT22;16349;53.672;10.014;2022-07-24T06:47:36;16.90;99.90
29363;DHT22;16349;53.672;10.014;2022-07-24T06:50:04;17.10;99.90
29363;DHT22;16349;53.672;10.014;2022-07-24T06:52:31;17.10;99.90
29363;DHT22;16349;53.672;10.014;2022-07-24T06:54:58;17.20;99.90
29363;DHT22;16349;53.672;10.014;2022-07-24T06:57:25;17.20;99.90
29363;DHT22;16349;53.672;10.014;2022-07-24T06:59:52;17.30;99.90
29363;DHT22;16349;53.672;10.014;2022-07-24T07:02:19;17.40;99.90
29363;DHT22;16349;53.672;10.014;2022-07-24T07:04:48;17.50;99.90
29363;DHT22;16349;53.672;10.014;2022-07-24T07:07:15;17.60;99.90
29363;DHT22;16349;53.672;10.014;2022-07-24T07:09:42;17.70;99.90
29363;DHT22;16349;53.672;10.014;2022-07-24T07:12:10;17.70;99.90
29363;DHT22;16349;53.672;10.014;2022-07-24T07:14:37;17.80;99.90
29363;DHT22;16349;53.672;10.014;2022-07-24T07:17:03;18.00;99.90
29363;DHT22;16349;53.672;10.014;2022-07-24T07:19:30;18.00;99.90
29363;DHT22;16349;53.672;10.014;2022-07-24T07:21:58;18.10;99.90
29363;DHT22;16349;53.672;10.014;2022-07-24T07:24:25;18.20;99.90
29363;DHT22;16349;53.672;10.014;2022-07-24T07:26:52;18.30;99.90
29363;DHT22;16349;53.672;10.014;2022-07-24T07:29:20;18.40;99.90
29363;DHT22;16349;53.672;10.014;2022-07-24T07:31:46;18.50;99.90
29363;DHT22;16349;53.672;10.014;2022-07-24T07:34:13;18.60;99.90
29363;DHT22;16349;53.672;10.014;2022-07-24T07:36:40;18.60;99.90
29363;DHT22;16349;53.672;10.014;2022-07-24T07:39:08;18.70;99.90
29363;DHT22;16349;53.672;10.014;2022-07-24T07:41:35;18.80;99.90
29363;DHT22;16349;53.672;10.014;2022-07-24T07:44:02;18.80;99.90
29363;DHT22;16349;53.672;10.014;2022-07-24T07:46:29;18.90;99.90
29363;DHT22;16349;53.672;10.014;2022-07-24T07:48:56;19.00;99.90
29363;DHT22;16349;53.672;10.014;2022-07-24T07:51:23;19.10;99.90
29363;DHT22;16349;53.672;10.014;2022-07-24T07:53:50;19.10;99.90
29363;DHT22;16349;53.672;10.014;2022-07-24T07:56:19;19.20;99.90
29363;DHT22;16349;53.672;10.014;2022-07-24T07:58:46;19.30;99.90
29363;DHT22;16349;53.672;10.014;2022-07-24T08:01:13;19.40;99.90
29363;DHT22;16349;53.672;10.014;2022-07-24T08:03:40;19.50;99.90
29363;DHT22;16349;53.672;10.014;2022-07-24T08:06:07;19.60;99.90
29363;DHT22;16349;53.672;10.014;2022-07-24T08:08:34;19.70;99.90
29363;DHT22;16349;53.672;10.014;2022-07-24T08:11:01;19.80;99.90
29363;DHT22;16349;53.672;10.014;2022-07-24T08:13:29;19.90;99.90
29363;DHT22;16349;53.672;10.014;2022-07-24T08:15:56;20.10;99.90
29363;DHT22;16349;53.672;10.014;2022-07-24T08:18:23;20.10;99.90
29363;DHT22;16349;53.672;10.014;2022-07-24T08:20:49;20.20;99.90
29363;DHT22;16349;53.672;10.014;2022-07-24T08:23:17;20.40;99.90
29363;DHT22;16349;53.672;10.014;2022-07-24T08:25:44;20.50;99.90
29363;DHT22;16349;53.672;10.014;2022-07-24T08:28:11;20.50;99.90
29363;DHT22;16349;53.672;10.014;2022-07-24T08:30:39;20.60;99.90
29363;DHT22;16349;53.672;10.014;2022-07-24T08:33:06;20.80;99.90
29363;DHT22;16349;53.672;10.014;2022-07-24T08:35:33;20.90;99.90
29363;DHT22;16349;53.672;10.014;2022-07-24T08:38:00;21.00;99.90
29363;DHT22;16349;53.672;10.014;2022-07-24T08:40:32;21.10;99.90
29363;DHT22;16349;53.672;10.014;2022-07-24T08:43:00;21.20;99.90
29363;DHT22;16349;53.672;10.014;2022-07-24T08:45:27;21.30;99.90
29363;DHT22;16349;53.672;10.014;2022-07-24T08:47:56;21.40;99.90
29363;DHT22;16349;53.672;10.014;2022-07-24T08:50:22;21.50;99.90
29363;DHT22;16349;53.672;10.014;2022-07-24T08:52:49;21.70;99.90
29363;DHT22;16349;53.672;10.014;2022-07-24T08:55:16;21.60;99.90
29363;DHT22;16349;53.672;10.014;2022-07-24T08:57:43;21.70;99.90
29363;DHT22;16349;53.672;10.014;2022-07-24T09:00:11;21.70;99.90
29363;DHT22;16349;53.672;10.014;2022-07-24T09:02:38;21.70;99.90
29363;DHT22;16349;53.672;10.014;2022-07-24T09:05:07;21.80;99.90
29363;DHT22;16349;53.672;10.014;2022-07-24T09:07:34;21.90;99.90
29363;DHT22;16349;53.672;10.014;2022-07-24T09:10:03;22.00;99.90
29363;DHT22;16349;53.672;10.014;2022-07-24T09:12:31;22.20;99.90
29363;DHT22;16349;53.672;10.014;2022-07-24T09:15:00;22.30;99.90
29363;DHT22;16349;53.672;10.014;2022-07-24T09:17:27;22.50;99.90
29363;DHT22;16349;53.672;10.014;2022-07-24T09:19:56;22.50;99.90
29363;DHT22;16349;53.672;10.014;2022-07-24T09:22:32;22.60;99.90
29363;DHT22;16349;53.672;10.014;2022-07-24T09:25:08;22.70;99.90
29363;DHT22;16349;53.672;10.014;2022-07-24T09:27:37;22.60;99.30
29363;DHT22;16349;53.672;10.014;2022-07-24T09:30:05;22.60;99.30
29363;DHT22;16349;53.672;10.014;2022-07-24T09:32:33;22.70;99.20
29363;DHT22;16349;53.672;10.014;2022-07-24T09:35:02;22.80;98.80
29363;DHT22;16349;53.672;10.014;2022-07-24T09:37:31;22.90;98.40
29363;DHT22;16349;53.672;10.014;2022-07-24T09:40:09;23.00;98.40
29363;DHT22;16349;53.672;10.014;2022-07-24T09:42:36;23.10;97.90
29363;DHT22;16349;53.672;10.014;2022-07-24T09:45:08;23.10;97.90
29363;DHT22;16349;53.672;10.014;2022-07-24T09:47:38;23.40;97.70
29363;DHT22;16349;53.672;10.014;2022-07-24T09:50:13;23.50;97.40
29363;DHT22;16349;53.672;10.014;2022-07-24T09:52:43;23.50;96.90
29363;DHT22;16349;53.672;10.014;2022-07-24T09:55:20;23.50;97.00
29363;DHT22;16349;53.672;10.014;2022-07-24T09:57:48;23.60;96.90
29363;DHT22;16349;53.672;10.014;2022-07-24T10:00:16;23.70;96.60
29363;DHT22;16349;53.672;10.014;2022-07-24T10:02:44;23.70;96.40
29363;DHT22;16349;53.672;10.014;2022-07-24T10:05:12;23.80;96.20
29363;DHT22;16349;53.672;10.014;2022-07-24T10:07:41;24.00;96.30
29363;DHT22;16349;53.672;10.014;2022-07-24T10:10:09;24.30;96.20
29363;DHT22;16349;53.672;10.014;2022-07-24T10:12:37;24.50;95.10
29363;DHT22;16349;53.672;10.014;2022-07-24T10:15:06;24.50;94.60
29363;DHT22;16349;53.672;10.014;2022-07-24T10:17:52;24.50;94.50
29363;DHT22;16349;53.672;10.014;2022-07-24T10:20:30;24.60;94.30
29363;DHT22;16349;53.672;10.014;2022-07-24T10:23:06;24.60;94.30
29363;DHT22;16349;53.672;10.014;2022-07-24T10:25:43;24.70;94.20
29363;DHT22;16349;53.672;10.014;2022-07-24T10:28:14;24.80;93.70
29363;DHT22;16349;53.672;10.014;2022-07-24T10:30:46;24.80;93.50
29363;DHT22;16349;53.672;10.014;2022-07-24T10:33:13;25.00;93.20
29363;DHT22;16349;53.672;10.014;2022-07-24T10:35:40;25.00;93.00
29363;DHT22;16349;53.672;10.014;2022-07-24T10:38:20;25.00;92.60
29363;DHT22;16349;53.672;10.014;2022-07-24T10:40:50;24.90;91.80
29363;DHT22;16349;53.672;10.014;2022-07-24T10:43:20;24.90;92.20
29363;DHT22;16349;53.672;10.014;2022-07-24T10:46:10;25.10;91.80
29363;DHT22;16349;53.672;10.014;2022-07-24T10:48:37;25.20;91.90
29363;DHT22;16349;53.672;10.014;2022-07-24T10:51:09;25.40;91.00
29363;DHT22;16349;53.672;10.014;2022-07-24T10:53:49;25.40;90.30
29363;DHT22;16349;53.672;10.014;2022-07-24T10:56:19;25.20;89.40
29363;DHT22;16349;53.672;10.014;2022-07-24T10:59:00;25.40;89.10
29363;DHT22;16349;53.672;10.014;2022-07-24T11:01:28;25.40;87.80
29363;DHT22;16349;53.672;10.014;2022-07-24T11:03:55;25.50;87.70
29363;DHT22;16349;53.672;10.014;2022-07-24T11:06:39;25.50;88.50
29363;DHT22;16349;53.672;10.014;2022-07-24T11:09:07;25.80;87.70
29363;DHT22;16349;53.672;10.014;2022-07-24T11:11:40;25.80;87.30
29363;DHT22;16349;53.672;10.014;2022-07-24T11:14:08;25.90;85.50
29363;DHT22;16349;53.672;10.014;2022-07-24T11:16:35;26.00;85.70
29363;DHT22;16349;53.672;10.014;2022-07-24T11:19:25;26.10;85.70
29363;DHT22;16349;53.672;10.014;2022-07-24T11:22:10;26.20;84.80
29363;DHT22;16349;53.672;10.014;2022-07-24T11:25:07;26.30;84.60
29363;DHT22;16349;53.672;10.014;2022-07-24T11:27:52;26.30;84.30
29363;DHT22;16349;53.672;10.014;2022-07-24T11:30:22;26.30;84.30
29363;DHT22;16349;53.672;10.014;2022-07-24T11:32:50;26.60;84.10
29363;DHT22;16349;53.672;10.014;2022-07-24T11:35:26;26.60;83.30
29363;DHT22;16349;53.672;10.014;2022-07-24T11:37:53;26.60;83.30
29363;DHT22;16349;53.672;10.014;2022-07-24T11:40:22;26.70;82.40
29363;DHT22;16349;53.672;10.014;2022-07-24T11:42:54;26.50;82.30
29363;DHT22;16349;53.672;10.014;2022-07-24T11:45:22;26.70;81.90
29363;DHT22;16349;53.672;10.014;2022-07-24T11:47:49;26.80;81.80
29363;DHT22;16349;53.672;10.014;2022-07-24T11:50:20;26.70;80.70
29363;DHT22;16349;53.672;10.014;2022-07-24T11:52:47;26.70;80.70
29363;DHT22;16349;53.672;10.014;2022-07-24T11:55:17;26.70;80.40
29363;DHT22;16349;53.672;10.014;2022-07-24T11:57:47;26.80;80.30
29363;DHT22;16349;53.672;10.014;2022-07-24T12:00:17;26.90;80.40
29363;DHT22;16349;53.672;10.014;2022-07-24T12:02:45;27.20;79.60
29363;DHT22;16349;53.672;10.014;2022-07-24T12:05:13;27.40;78.80
29363;DHT22;16349;53.672;10.014;2022-07-24T12:07:49;27.40;78.20
29363;DHT22;16349;53.672;10.014;2022-07-24T12:10:19;27.60;77.70
29363;DHT22;16349;53.672;10.014;2022-07-24T12:12:50;27.80;76.20
29363;DHT22;16349;53.672;10.014;2022-07-24T12:15:20;27.90;76.40
29363;DHT22;16349;53.672;10.014;2022-07-24T12:17:54;28.20;75.70
29363;DHT22;16349;53.672;10.014;2022-07-24T12:20:21;28.30;74.00
29363;DHT22;16349;53.672;10.014;2022-07-24T12:22:49;28.40;74.00
29363;DHT22;16349;53.672;10.014;2022-07-24T12:25:15;28.20;73.50
29363;DHT22;16349;53.672;10.014;2022-07-24T12:27:44;28.10;73.60
29363;DHT22;16349;53.672;10.014;2022-07-24T12:30:32;28.00;73.90
29363;DHT22;16349;53.672;10.014;2022-07-24T12:33:01;28.10;72.10
29363;DHT22;16349;53.672;10.014;2022-07-24T12:35:31;28.10;72.70
29363;DHT22;16349;53.672;10.014;2022-07-24T12:38:00;28.10;72.50
29363;DHT22;16349;53.672;10.014;2022-07-24T12:40:32;28.10;72.90
29363;DHT22;16349;53.672;10.014;2022-07-24T12:43:01;28.10;72.00
29363;DHT22;16349;53.672;10.014;2022-07-24T12:45:29;28.20;72.00
29363;DHT22;16349;53.672;10.014;2022-07-24T12:48:18;28.40;71.30
29363;DHT22;16349;53.672;10.014;2022-07-24T12:50:59;28.40;69.10
29363;DHT22;16349;53.672;10.014;2022-07-24T12:53:28;28.40;70.90
29363;DHT22;16349;53.672;10.014;2022-07-24T12:56:19;28.60;69.90
29363;DHT22;16349;53.672;10.014;2022-07-24T12:59:04;28.80;67.90
29363;DHT22;16349;53.672;10.014;2022-07-24T13:01:48;29.00;67.80
29363;DHT22;16349;53.672;10.014;2022-07-24T13:04:19;29.40;66.80
29363;DHT22;16349;53.672;10.014;2022-07-24T13:06:48;29.50;66.40
29363;DHT22;16349;53.672;10.014;2022-07-24T13:09:16;29.30;67.00
29363;DHT22;16349;53.672;10.014;2022-07-24T13:11:45;29.40;66.50
29363;DHT22;16349;53.672;10.014;2022-07-24T13:14:13;29.10;66.20
29363;DHT22;16349;53.672;10.014;2022-07-24T13:16:41;28.90;66.40
29363;DHT22;16349;53.672;10.014;2022-07-24T13:19:09;28.90;66.80
29363;DHT22;16349;53.672;10.014;2022-07-24T13:21:38;28.70;66.60
29363;DHT22;16349;53.672;10.014;2022-07-24T13:24:07;28.80;66.90
29363;DHT22;16349;53.672;10.014;2022-07-24T13:26:35;29.20;65.90
29363;DHT22;16349;53.672;10.014;2022-07-24T13:29:02;29.60;65.20
29363;DHT22;16349;53.672;10.014;2022-07-24T13:31:29;29.90;64.20
29363;DHT22;16349;53.672;10.014;2022-07-24T13:33:56;30.10;62.70
29363;DHT22;16349;53.672;10.014;2022-07-24T13:36:23;30.60;62.10
29363;DHT22;16349;53.672;10.014;2022-07-24T13:38:51;31.10;63.80
29363;DHT22;16349;53.672;10.014;2022-07-24T13:41:18;31.40;59.40
29363;DHT22;16349;53.672;10.014;2022-07-24T13:43:47;31.60;58.60
29363;DHT22;16349;53.672;10.014;2022-07-24T13:46:13;31.60;58.60
29363;DHT22;16349;53.672;10.014;2022-07-24T13:48:41;31.90;58.50
29363;DHT22;16349;53.672;10.014;2022-07-24T13:51:08;32.00;57.80
29363;DHT22;16349;53.672;10.014;2022-07-24T13:53:35;31.60;57.40
29363;DHT22;16349;53.672;10.014;2022-07-24T13:56:05;31.50;57.90
29363;DHT22;16349;53.672;10.014;2022-07-24T13:58:33;31.50;56.30
29363;DHT22;16349;53.672;10.014;2022-07-24T14:01:02;31.90;56.20
29363;DHT22;16349;53.672;10.014;2022-07-24T14:03:30;32.20;55.30
29363;DHT22;16349;53.672;10.014;2022-07-24T14:05:57;32.40;55.80
29363;DHT22;16349;53.672;10.014;2022-07-24T14:08:24;32.80;54.60
29363;DHT22;16349;53.672;10.014;2022-07-24T14:10:51;32.80;54.50
29363;DHT22;16349;53.672;10.014;2022-07-24T14:13:19;33.00;54.00
29363;DHT22;16349;53.672;10.014;2022-07-24T14:15:46;33.40;53.30
29363;DHT22;16349;53.672;10.014;2022-07-24T14:20:41;33.10;51.30
29363;DHT22;16349;53.672;10.014;2022-07-24T14:23:08;33.50;50.50
29363;DHT22;16349;53.672;10.014;2022-07-24T14:25:34;33.70;50.20
29363;DHT22;16349;53.672;10.014;2022-07-24T14:28:01;34.00;49.60
29363;DHT22;16349;53.672;10.014;2022-07-24T14:30:29;33.90;48.80
29363;DHT22;16349;53.672;10.014;2022-07-24T14:32:56;33.90;49.50
29363;DHT22;16349;53.672;10.014;2022-07-24T14:35:23;33.50;49.60
29363;DHT22;16349;53.672;10.014;2022-07-24T14:37:52;33.60;49.70
29363;DHT22;16349;53.672;10.014;2022-07-24T14:40:20;33.70;50.00
29363;DHT22;16349;53.672;10.014;2022-07-24T14:42:46;33.80;48.80
29363;DHT22;16349;53.672;10.014;2022-07-24T14:45:13;33.70;48.40
29363;DHT22;16349;53.672;10.014;2022-07-24T14:47:42;33.70;48.70
29363;DHT22;16349;53.672;10.014;2022-07-24T14:50:09;34.10;48.70
29363;DHT22;16349;53.672;10.014;2022-07-24T14:52:36;33.90;47.40
29363;DHT22;16349;53.672;10.014;2022-07-24T14:55:04;33.80;47.60
29363;DHT22;16349;53.672;10.014;2022-07-24T14:57:31;34.00;47.90
29363;DHT22;16349;53.672;10.014;2022-07-24T14:59:58;34.30;48.30
29363;DHT22;16349;53.672;10.014;2022-07-24T15:02:25;34.40;47.50
29363;DHT22;16349;53.672;10.014;2022-07-24T15:04:54;34.40;47.50
29363;DHT22;16349;53.672;10.014;2022-07-24T15:07:21;34.70;46.50
29363;DHT22;16349;53.672;10.014;2022-07-24T15:09:47;34.70;46.10
29363;DHT22;16349;53.672;10.014;2022-07-24T15:12:14;34.90;45.70
29363;DHT22;16349;53.672;10.014;2022-07-24T15:14:41;34.80;45.70
29363;DHT22;16349;53.672;10.014;2022-07-24T15:17:07;34.40;45.50
29363;DHT22;16349;53.672;10.014;2022-07-24T15:19:34;34.40;46.00
29363;DHT22;16349;53.672;10.014;2022-07-24T15:22:02;34.50;45.90
29363;DHT22;16349;53.672;10.014;2022-07-24T15:24:29;34.40;45.40
29363;DHT22;16349;53.672;10.014;2022-07-24T15:26:56;33.70;46.40
29363;DHT22;16349;53.672;10.014;2022-07-24T15:29:23;33.10;47.30